sensor_id;sensor_type;location;lat;lon;timestamp;pressure;altitude;pressure_sealevel;temperature;humidity
22031;BME280;11179;52.106;21.024;2023-12-20T00:02:12;99635.34;;;6.47;73.52
22031;BME280;11179;52.106;21.024;2023-12-20T00:04:37;99626.81;;;6.44;73.60
22031;BME280;11179;52.106;21.024;2023-12-20T00:07:06;99632.59;;;6.47;73.41
22031;BME280;11179;52.106;21.024;2023-12-20T00:09:31;99632.94;;;6.51;73.46
22031;BME280;11179;52.106;21.024;2023-12-20T00:11:56;99634.59;;;6.52;73.53
22031;BME280;11179;52.106;21.024;2023-12-20T00:14:24;99625.25;;;6.48;73.63
22031;BME280;11179;52.106;21.024;2023-12-20T00:16:50;99628.31;;;6.51;73.92
22031;BME280;11179;52.106;21.024;2023-12-20T00:19:15;99614.59;;;6.46;73.85
22031;BME280;11179;52.106;21.024;2023-12-20T00:21:40;99620.97;;;6.52;73.62
22031;BME280;11179;52.106;21.024;2023-12-20T00:24:09;99620.13;;;6.51;73.62
22031;BME280;11179;52.106;21.024;2023-12-20T00:26:36;99619.84;;;6.53;74.08
22031;BME280;11179;52.106;21.024;2023-12-20T00:29:01;99607.72;;;6.44;74.10
22031;BME280;11179;52.106;21.024;2023-12-20T00:31:27;99617.94;;;6.53;73.85
22031;BME280;11179;52.106;21.024;2023-12-20T00:33:52;99603.34;;;6.43;73.91
22031;BME280;11179;52.106;21.024;2023-12-20T00:36:17;99626.41;;;6.52;73.98
22031;BME280;11179;52.106;21.024;2023-12-20T00:38:43;99618.22;;;6.52;74.05
22031;BME280;11179;52.106;21.024;2023-12-20T00:41:08;99607.00;;;6.48;74.07
22031;BME280;11179;52.106;21.024;2023-12-20T00:43:38;99617.41;;;6.51;73.97
22031;BME280;11179;52.106;21.024;2023-12-20T00:46:04;99605.97;;;6.54;74.29
22031;BME280;11179;52.106;21.024;2023-12-20T00:48:32;99599.94;;;6.52;74.19
22031;BME280;11179;52.106;21.024;2023-12-20T00:51:02;99594.75;;;6.51;74.22
22031;BME280;11179;52.106;21.024;2023-12-20T00:53:30;99597.50;;;6.51;74.24
22031;BME280;11179;52.106;21.024;2023-12-20T00:55:56;99584.84;;;6.45;74.10
22031;BME280;11179;52.106;21.024;2023-12-20T00:58:23;99591.13;;;6.45;74.23
22031;BME280;11179;52.106;21.024;2023-12-20T01:00:49;99592.28;;;6.49;74.26
22031;BME280;11179;52.106;21.024;2023-12-20T01:03:14;99591.44;;;6.49;74.10
22031;BME280;11179;52.106;21.024;2023-12-20T01:05:40;99575.91;;;6.49;74.21
22031;BME280;11179;52.106;21.024;2023-12-20T01:08:08;99576.41;;;6.46;74.21
22031;BME280;11179;52.106;21.024;2023-12-20T01:10:33;99574.75;;;6.45;74.41
22031;BME280;11179;52.106;21.024;2023-12-20T01:12:58;99588.22;;;6.52;74.22
22031;BME280;11179;52.106;21.024;2023-12-20T01:15:23;99575.59;;;6.46;74.25
22031;BME280;11179;52.106;21.024;2023-12-20T01:17:49;99577.25;;;6.47;74.21
22031;BME280;11179;52.106;21.024;2023-12-20T01:20:14;99578.88;;;6.48;74.34
22031;BME280;11179;52.106;21.024;2023-12-20T01:22:40;99571.22;;;6.45;74.06
22031;BME280;11179;52.106;21.024;2023-12-20T01:25:08;99582.19;;;6.50;74.33
22031;BME280;11179;52.106;21.024;2023-12-20T01:27:33;99579.97;;;6.47;74.24
22031;BME280;11179;52.106;21.024;2023-12-20T01:30:00;99568.47;;;6.45;74.08
22031;BME280;11179;52.106;21.024;2023-12-20T01:32:25;99586.31;;;6.52;74.20
22031;BME280;11179;52.106;21.024;2023-12-20T01:34:51;99574.06;;;6.55;74.21
22031;BME280;11179;52.106;21.024;2023-12-20T01:37:16;99564.69;;;6.46;74.27
22031;BME280;11179;52.106;21.024;2023-12-20T01:39:41;99568.31;;;6.51;74.15
22031;BME280;11179;52.106;21.024;2023-12-20T01:42:09;99542.22;;;6.39;74.40
22031;BME280;11179;52.106;21.024;2023-12-20T01:44:34;99556.59;;;6.51;74.31
22031;BME280;11179;52.106;21.024;2023-12-20T01:47:02;99553.03;;;6.50;74.58
22031;BME280;11179;52.106;21.024;2023-12-20T01:49:28;99523.78;;;6.29;74.39
22031;BME280;11179;52.106;21.024;2023-12-20T01:51:54;99557.91;;;6.48;74.36
22031;BME280;11179;52.106;21.024;2023-12-20T01:54:20;99553.56;;;6.52;74.42
22031;BME280;11179;52.106;21.024;2023-12-20T01:56:46;99547.00;;;6.48;74.59
22031;BME280;11179;52.106;21.024;2023-12-20T01:59:12;99556.25;;;6.47;74.39
22031;BME280;11179;52.106;21.024;2023-12-20T02:01:37;99552.69;;;6.47;74.54
22031;BME280;11179;52.106;21.024;2023-12-20T02:04:03;99544.19;;;6.43;74.51
22031;BME280;11179;52.106;21.024;2023-12-20T02:06:30;99540.72;;;6.48;74.58
22031;BME280;11179;52.106;21.024;2023-12-20T02:09:04;99533.84;;;6.45;74.45
22031;BME280;11179;52.106;21.024;2023-12-20T02:11:30;99544.84;;;6.50;74.65
22031;BME280;11179;52.106;21.024;2023-12-20T02:13:56;99533.34;;;6.48;74.53
22031;BME280;11179;52.106;21.024;2023-12-20T02:16:22;99523.31;;;6.54;74.57
22031;BME280;11179;52.106;21.024;2023-12-20T02:18:47;99531.25;;;6.55;74.57
22031;BME280;11179;52.106;21.024;2023-12-20T02:21:12;99518.41;;;6.51;74.36
22031;BME280;11179;52.106;21.024;2023-12-20T02:23:38;99520.81;;;6.47;74.62
22031;BME280;11179;52.106;21.024;2023-12-20T02:26:04;99501.38;;;6.44;74.51
22031;BME280;11179;52.106;21.024;2023-12-20T02:28:30;99513.25;;;6.54;74.48
22031;BME280;11179;52.106;21.024;2023-12-20T02:31:04;99511.91;;;6.57;74.65
22031;BME280;11179;52.106;21.024;2023-12-20T02:33:29;99512.75;;;6.57;74.73
22031;BME280;11179;52.106;21.024;2023-12-20T02:35:57;99512.75;;;6.57;74.69
22031;BME280;11179;52.106;21.024;2023-12-20T02:38:22;99522.25;;;6.55;74.53
22031;BME280;11179;52.106;21.024;2023-12-20T02:40:48;99497.91;;;6.48;74.71
22031;BME280;11179;52.106;21.024;2023-12-20T02:43:13;99502.03;;;6.51;74.71
22031;BME280;11179;52.106;21.024;2023-12-20T02:45:38;99510.28;;;6.56;74.80
22031;BME280;11179;52.106;21.024;2023-12-20T02:48:04;99496.25;;;6.47;74.41
22031;BME280;11179;52.106;21.024;2023-12-20T02:50:29;99503.69;;;6.52;74.71
22031;BME280;11179;52.106;21.024;2023-12-20T02:52:55;99495.44;;;6.47;74.87
22031;BME280;11179;52.106;21.024;2023-12-20T02:55:20;99512.13;;;6.50;74.60
22031;BME280;11179;52.106;21.024;2023-12-20T02:57:45;99497.59;;;6.45;74.88
22031;BME280;11179;52.106;21.024;2023-12-20T03:00:11;99508.94;;;6.58;74.79
22031;BME280;11179;52.106;21.024;2023-12-20T03:02:36;99500.50;;;6.60;74.81
22031;BME280;11179;52.106;21.024;2023-12-20T03:05:05;99515.84;;;6.66;74.70
22031;BME280;11179;52.106;21.024;2023-12-20T03:07:32;99519.69;;;6.65;74.56
22031;BME280;11179;52.106;21.024;2023-12-20T03:09:58;99504.13;;;6.66;74.78
22031;BME280;11179;52.106;21.024;2023-12-20T03:12:23;99500.88;;;6.69;74.85
22031;BME280;11179;52.106;21.024;2023-12-20T03:14:48;99500.63;;;6.70;74.61
22031;BME280;11179;52.106;21.024;2023-12-20T03:17:16;99496.31;;;6.74;74.70
22031;BME280;11179;52.106;21.024;2023-12-20T03:19:41;99493.59;;;6.74;74.51
22031;BME280;11179;52.106;21.024;2023-12-20T03:22:07;99490.22;;;6.67;74.64
22031;BME280;11179;52.106;21.024;2023-12-20T03:24:35;99485.81;;;6.61;74.80
22031;BME280;11179;52.106;21.024;2023-12-20T03:27:00;99506.03;;;6.65;74.69
22031;BME280;11179;52.106;21.024;2023-12-20T03:29:26;99501.66;;;6.64;74.72
22031;BME280;11179;52.106;21.024;2023-12-20T03:31:51;99491.84;;;6.63;75.08
22031;BME280;11179;52.106;21.024;2023-12-20T03:34:16;99490.75;;;6.64;74.89
22031;BME280;11179;52.106;21.024;2023-12-20T03:36:41;99487.19;;;6.64;74.50
22031;BME280;11179;52.106;21.024;2023-12-20T03:39:07;99478.63;;;6.55;75.05
22031;BME280;11179;52.106;21.024;2023-12-20T03:41:35;99476.47;;;6.57;74.82
22031;BME280;11179;52.106;21.024;2023-12-20T03:44:00;99483.81;;;6.56;74.87
22031;BME280;11179;52.106;21.024;2023-12-20T03:46:26;99478.13;;;6.58;74.80
22031;BME280;11179;52.106;21.024;2023-12-20T03:48:51;99471.25;;;6.55;74.64
22031;BME280;11179;52.106;21.024;2023-12-20T03:51:16;99473.75;;;6.57;74.74
22031;BME280;11179;52.106;21.024;2023-12-20T03:53:42;99480.28;;;6.56;74.75
22031;BME280;11179;52.106;21.024;2023-12-20T03:56:07;99487.38;;;6.57;74.83
22031;BME280;11179;52.106;21.024;2023-12-20T03:58:35;99482.13;;;6.50;74.81
22031;BME280;11179;52.106;21.024;2023-12-20T04:01:03;99486.50;;;6.51;74.92
22031;BME280;11179;52.106;21.024;2023-12-20T04:03:28;99471.38;;;6.44;74.92
22031;BME280;11179;52.106;21.024;2023-12-20T04:05:53;99460.56;;;6.49;75.09
22031;BME280;11179;52.106;21.024;2023-12-20T04:08:18;99462.00;;;6.56;74.93
22031;BME280;11179;52.106;21.024;2023-12-20T04:10:44;99486.06;;;6.60;74.93
22031;BME280;11179;52.106;21.024;2023-12-20T04:13:09;99478.88;;;6.53;74.67
22031;BME280;11179;52.106;21.024;2023-12-20T04:15:42;99479.19;;;6.57;74.85
22031;BME280;11179;52.106;21.024;2023-12-20T04:18:24;99467.66;;;6.50;74.70
22031;BME280;11179;52.106;21.024;2023-12-20T04:20:49;99482.66;;;6.52;74.79
22031;BME280;11179;52.106;21.024;2023-12-20T04:23:16;99479.91;;;6.47;74.88
22031;BME280;11179;52.106;21.024;2023-12-20T04:25:42;99474.63;;;6.41;74.89
22031;BME280;11179;52.106;21.024;2023-12-20T04:28:07;99474.88;;;6.39;74.88
22031;BME280;11179;52.106;21.024;2023-12-20T04:30:33;99467.50;;;6.40;75.09
22031;BME280;11179;52.106;21.024;2023-12-20T04:33:01;99462.06;;;6.40;74.78
22031;BME280;11179;52.106;21.024;2023-12-20T04:35:27;99470.63;;;6.48;74.96
22031;BME280;11179;52.106;21.024;2023-12-20T04:37:52;99464.78;;;6.40;74.91
22031;BME280;11179;52.106;21.024;2023-12-20T04:40:20;99448.28;;;6.30;74.82
22031;BME280;11179;52.106;21.024;2023-12-20T04:42:45;99470.31;;;6.45;74.87
22031;BME280;11179;52.106;21.024;2023-12-20T04:45:13;99476.09;;;6.48;75.13
22031;BME280;11179;52.106;21.024;2023-12-20T04:47:41;99472.59;;;6.53;74.78
22031;BME280;11179;52.106;21.024;2023-12-20T04:50:10;99453.00;;;6.34;74.91
22031;BME280;11179;52.106;21.024;2023-12-20T04:52:36;99449.78;;;6.37;74.76
22031;BME280;11179;52.106;21.024;2023-12-20T04:55:09;99445.06;;;6.33;74.56
22031;BME280;11179;52.106;21.024;2023-12-20T04:57:35;99447.69;;;6.28;74.95
22031;BME280;11179;52.106;21.024;2023-12-20T05:00:03;99479.16;;;6.52;74.90
22031;BME280;11179;52.106;21.024;2023-12-20T05:02:32;99463.78;;;6.46;75.02
22031;BME280;11179;52.106;21.024;2023-12-20T05:04:57;99468.75;;;6.49;75.16
22031;BME280;11179;52.106;21.024;2023-12-20T05:07:22;99458.91;;;6.48;75.01
22031;BME280;11179;52.106;21.024;2023-12-20T05:09:54;99462.13;;;6.45;74.86
22031;BME280;11179;52.106;21.024;2023-12-20T05:12:25;99466.84;;;6.49;75.03
22031;BME280;11179;52.106;21.024;2023-12-20T05:14:52;99470.69;;;6.53;74.89
22031;BME280;11179;52.106;21.024;2023-12-20T05:17:17;99464.28;;;6.43;74.89
22031;BME280;11179;52.106;21.024;2023-12-20T05:19:42;99462.50;;;6.53;75.18
22031;BME280;11179;52.106;21.024;2023-12-20T05:22:08;99464.72;;;6.56;74.93
22031;BME280;11179;52.106;21.024;2023-12-20T05:24:35;99456.81;;;6.55;74.89
22031;BME280;11179;52.106;21.024;2023-12-20T05:27:01;99452.13;;;6.50;75.07
22031;BME280;11179;52.106;21.024;2023-12-20T05:29:26;99439.25;;;6.46;75.10
22031;BME280;11179;52.106;21.024;2023-12-20T05:31:51;99444.78;;;6.51;75.16
22031;BME280;11179;52.106;21.024;2023-12-20T05:34:17;99447.69;;;6.44;75.03
22031;BME280;11179;52.106;21.024;2023-12-20T05:36:51;99450.47;;;6.49;75.06
22031;BME280;11179;52.106;21.024;2023-12-20T05:39:17;99458.34;;;6.46;75.20
22031;BME280;11179;52.106;21.024;2023-12-20T05:41:42;99454.53;;;6.47;75.33
22031;BME280;11179;52.106;21.024;2023-12-20T05:44:10;99463.28;;;6.49;74.84
22031;BME280;11179;52.106;21.024;2023-12-20T05:46:35;99454.44;;;6.42;75.27
22031;BME280;11179;52.106;21.024;2023-12-20T05:49:03;99459.66;;;6.43;75.23
22031;BME280;11179;52.106;21.024;2023-12-20T05:51:29;99460.47;;;6.44;75.20
22031;BME280;11179;52.106;21.024;2023-12-20T05:53:54;99457.44;;;6.40;75.22
22031;BME280;11179;52.106;21.024;2023-12-20T05:56:20;99456.59;;;6.40;75.32
22031;BME280;11179;52.106;21.024;2023-12-20T05:58:45;99452.75;;;6.36;75.16
22031;BME280;11179;52.106;21.024;2023-12-20T06:01:10;99456.59;;;6.40;75.11
22031;BME280;11179;52.106;21.024;2023-12-20T06:03:36;99453.63;;;6.41;75.08
22031;BME280;11179;52.106;21.024;2023-12-20T06:06:06;99450.66;;;6.43;75.28
22031;BME280;11179;52.106;21.024;2023-12-20T06:08:32;99451.81;;;6.47;75.22
22031;BME280;11179;52.106;21.024;2023-12-20T06:10:57;99445.19;;;6.43;75.31
22031;BME280;11179;52.106;21.024;2023-12-20T06:13:22;99438.91;;;6.42;75.19
22031;BME280;11179;52.106;21.024;2023-12-20T06:15:48;99433.19;;;6.39;75.05
22031;BME280;11179;52.106;21.024;2023-12-20T06:18:13;99439.16;;;6.41;75.21
22031;BME280;11179;52.106;21.024;2023-12-20T06:20:38;99446.03;;;6.43;75.26
22031;BME280;11179;52.106;21.024;2023-12-20T06:23:04;99454.19;;;6.43;74.93
22031;BME280;11179;52.106;21.024;2023-12-20T06:25:39;99462.13;;;6.45;75.03
22031;BME280;11179;52.106;21.024;2023-12-20T06:28:07;99455.03;;;6.44;75.07
22031;BME280;11179;52.106;21.024;2023-12-20T06:30:39;99450.03;;;6.36;75.23
22031;BME280;11179;52.106;21.024;2023-12-20T06:33:05;99464.38;;;6.48;75.27
22031;BME280;11179;52.106;21.024;2023-12-20T06:35:31;99448.44;;;6.40;75.24
22031;BME280;11179;52.106;21.024;2023-12-20T06:37:57;99453.13;;;6.44;75.35
22031;BME280;11179;52.106;21.024;2023-12-20T06:40:25;99454.19;;;6.43;75.04
22031;BME280;11179;52.106;21.024;2023-12-20T06:42:50;99459.91;;;6.42;75.07
22031;BME280;11179;52.106;21.024;2023-12-20T06:45:16;99449.25;;;6.40;75.33
22031;BME280;11179;52.106;21.024;2023-12-20T06:47:41;99456.09;;;6.43;75.11
22031;BME280;11179;52.106;21.024;2023-12-20T06:50:06;99444.06;;;6.39;75.34
22031;BME280;11179;52.106;21.024;2023-12-20T06:52:34;99453.34;;;6.38;75.28
22031;BME280;11179;52.106;21.024;2023-12-20T06:55:00;99449.00;;;6.42;75.03
22031;BME280;11179;52.106;21.024;2023-12-20T06:57:25;99445.69;;;6.40;75.40
22031;BME280;11179;52.106;21.024;2023-12-20T06:59:51;99449.81;;;6.42;75.27
22031;BME280;11179;52.106;21.024;2023-12-20T07:02:17;99464.38;;;6.48;75.24
22031;BME280;11179;52.106;21.024;2023-12-20T07:04:43;99448.81;;;6.48;75.33
22031;BME280;11179;52.106;21.024;2023-12-20T07:07:08;99443.38;;;6.48;75.33
22031;BME280;11179;52.106;21.024;2023-12-20T07:09:34;99418.63;;;6.33;75.19
22031;BME280;11179;52.106;21.024;2023-12-20T07:11:59;99446.34;;;6.47;75.30
22031;BME280;11179;52.106;21.024;2023-12-20T07:14:27;99444.63;;;6.41;75.20
22031;BME280;11179;52.106;21.024;2023-12-20T07:17:03;99422.59;;;6.26;75.20
22031;BME280;11179;52.106;21.024;2023-12-20T07:19:44;99398.00;;;6.20;75.40
22031;BME280;11179;52.106;21.024;2023-12-20T07:22:11;99423.00;;;6.34;75.30
22031;BME280;11179;52.106;21.024;2023-12-20T07:24:39;99432.63;;;6.42;75.15
22031;BME280;11179;52.106;21.024;2023-12-20T07:27:04;99419.94;;;6.31;75.26
22031;BME280;11179;52.106;21.024;2023-12-20T07:29:30;99423.84;;;6.35;75.12
22031;BME280;11179;52.106;21.024;2023-12-20T07:31:57;99421.63;;;6.32;75.10
22031;BME280;11179;52.106;21.024;2023-12-20T07:34:22;99453.56;;;6.58;75.43
22031;BME280;11179;52.106;21.024;2023-12-20T07:36:48;99437.09;;;6.48;75.33
22031;BME280;11179;52.106;21.024;2023-12-20T07:39:14;99449.94;;;6.52;75.41
22031;BME280;11179;52.106;21.024;2023-12-20T07:41:39;99429.09;;;6.41;75.20
22031;BME280;11179;52.106;21.024;2023-12-20T07:44:04;99449.69;;;6.54;75.08
22031;BME280;11179;52.106;21.024;2023-12-20T07:46:37;99451.91;;;6.57;75.06
22031;BME280;11179;52.106;21.024;2023-12-20T07:49:06;99439.25;;;6.46;75.13
22031;BME280;11179;52.106;21.024;2023-12-20T07:51:31;99454.03;;;6.50;75.33
22031;BME280;11179;52.106;21.024;2023-12-20T07:53:56;99461.44;;;6.54;75.27
22031;BME280;11179;52.106;21.024;2023-12-20T07:59:18;99431.53;;;6.38;75.36
22031;BME280;11179;52.106;21.024;2023-12-20T08:01:49;99425.88;;;6.28;75.07
22031;BME280;11179;52.106;21.024;2023-12-20T08:04:17;99448.00;;;6.48;75.12
22031;BME280;11179;52.106;21.024;2023-12-20T08:06:42;99428.22;;;6.36;75.47
22031;BME280;11179;52.106;21.024;2023-12-20T08:09:10;99436.44;;;6.41;75.35
22031;BME280;11179;52.106;21.024;2023-12-20T08:11:35;99463.06;;;6.55;75.52
22031;BME280;11179;52.106;21.024;2023-12-20T08:14:01;99457.63;;;6.55;75.51
22031;BME280;11179;52.106;21.024;2023-12-20T08:16:26;99449.66;;;6.49;75.62
22031;BME280;11179;52.106;21.024;2023-12-20T08:18:52;99444.69;;;6.46;75.41
22031;BME280;11179;52.106;21.024;2023-12-20T08:21:17;99425.00;;;6.39;75.28
22031;BME280;11179;52.106;21.024;2023-12-20T08:23:56;99416.06;;;6.27;75.19
22031;BME280;11179;52.106;21.024;2023-12-20T08:26:21;99422.75;;;6.36;75.52
22031;BME280;11179;52.106;21.024;2023-12-20T08:28:48;99437.09;;;6.48;75.39
22031;BME280;11179;52.106;21.024;2023-12-20T08:31:15;99454.31;;;6.53;75.23
22031;BME280;11179;52.106;21.024;2023-12-20T08:33:41;99445.31;;;6.53;75.54
22031;BME280;11179;52.106;21.024;2023-12-20T08:36:06;99453.56;;;6.58;75.33
22031;BME280;11179;52.106;21.024;2023-12-20T08:38:32;99453.00;;;6.56;75.42
22031;BME280;11179;52.106;21.024;2023-12-20T08:40:57;99456.28;;;6.58;75.20
22031;BME280;11179;52.106;21.024;2023-12-20T08:43:22;99458.69;;;6.54;75.45
22031;BME280;11179;52.106;21.024;2023-12-20T08:45:47;99463.31;;;6.54;75.49
22031;BME280;11179;52.106;21.024;2023-12-20T08:48:13;99456.50;;;6.51;75.52
22031;BME280;11179;52.106;21.024;2023-12-20T08:50:38;99456.28;;;6.58;75.49
22031;BME280;11179;52.106;21.024;2023-12-20T08:53:04;99456.88;;;6.60;75.45
22031;BME280;11179;52.106;21.024;2023-12-20T08:55:29;99453.56;;;6.58;75.29
22031;BME280;11179;52.106;21.024;2023-12-20T08:57:56;99445.63;;;6.56;75.24
22031;BME280;11179;52.106;21.024;2023-12-20T09:00:24;99446.78;;;6.61;75.09
22031;BME280;11179;52.106;21.024;2023-12-20T09:02:55;99441.84;;;6.57;75.20
22031;BME280;11179;52.106;21.024;2023-12-20T09:05:23;99437.13;;;6.53;75.48
22031;BME280;11179;52.106;21.024;2023-12-20T09:07:50;99406.69;;;6.39;75.36
22031;BME280;11179;52.106;21.024;2023-12-20T09:10:16;99432.56;;;6.58;75.44
22031;BME280;11179;52.106;21.024;2023-12-20T09:12:47;99442.78;;;6.68;75.24
22031;BME280;11179;52.106;21.024;2023-12-20T09:15:12;99429.09;;;6.63;75.36
22031;BME280;11179;52.106;21.024;2023-12-20T09:17:38;99428.06;;;6.69;75.16
22031;BME280;11179;52.106;21.024;2023-12-20T09:20:04;99424.25;;;6.70;75.25
22031;BME280;11179;52.106;21.024;2023-12-20T09:22:31;99425.34;;;6.69;75.26
22031;BME280;11179;52.106;21.024;2023-12-20T09:24:57;99430.84;;;6.74;75.17
22031;BME280;11179;52.106;21.024;2023-12-20T09:27:22;99413.31;;;6.65;75.29
22031;BME280;11179;52.106;21.024;2023-12-20T09:29:47;99405.63;;;6.62;75.23
22031;BME280;11179;52.106;21.024;2023-12-20T09:32:13;99423.50;;;6.75;75.25
22031;BME280;11179;52.106;21.024;2023-12-20T09:34:39;99399.09;;;6.63;75.29
22031;BME280;11179;52.106;21.024;2023-12-20T09:37:04;99401.81;;;6.63;75.21
22031;BME280;11179;52.106;21.024;2023-12-20T09:39:30;99400.22;;;6.67;75.16
22031;BME280;11179;52.106;21.024;2023-12-20T09:42:06;99408.72;;;6.71;75.42
22031;BME280;11179;52.106;21.024;2023-12-20T09:47:26;99397.91;;;6.81;75.41
22031;BME280;11179;52.106;21.024;2023-12-20T09:49:52;99386.38;;;6.74;75.24
22031;BME280;11179;52.106;21.024;2023-12-20T09:52:18;99388.03;;;6.75;75.11
22031;BME280;11179;52.106;21.024;2023-12-20T09:54:43;99396.25;;;6.80;75.27
22031;BME280;11179;52.106;21.024;2023-12-20T09:57:10;99391.88;;;6.79;74.84
22031;BME280;11179;52.106;21.024;2023-12-20T09:59:35;99379.22;;;6.68;75.16
22031;BME280;11179;52.106;21.024;2023-12-20T10:02:01;99395.97;;;6.76;75.35
22031;BME280;11179;52.106;21.024;2023-12-20T10:04:31;99393.22;;;6.76;75.13
22031;BME280;11179;52.106;21.024;2023-12-20T10:07:02;99389.38;;;6.72;75.13
22031;BME280;11179;52.106;21.024;2023-12-20T10:09:31;99387.97;;;6.70;75.13
22031;BME280;11179;52.106;21.024;2023-12-20T10:11:57;99377.31;;;6.68;75.11
22031;BME280;11179;52.106;21.024;2023-12-20T10:14:23;99389.88;;;6.69;75.13
22031;BME280;11179;52.106;21.024;2023-12-20T10:16:48;99378.09;;;6.64;75.22
22031;BME280;11179;52.106;21.024;2023-12-20T10:19:16;99380.34;;;6.72;74.86
22031;BME280;11179;52.106;21.024;2023-12-20T10:21:42;99389.88;;;6.69;75.29
22031;BME280;11179;52.106;21.024;2023-12-20T10:24:08;99386.56;;;6.67;75.26
22031;BME280;11179;52.106;21.024;2023-12-20T10:26:36;99386.88;;;6.71;75.33
22031;BME280;11179;52.106;21.024;2023-12-20T10:29:02;99368.84;;;6.65;75.08
22031;BME280;11179;52.106;21.024;2023-12-20T10:31:31;99371.91;;;6.73;75.03
22031;BME280;11179;52.106;21.024;2023-12-20T10:33:58;99380.09;;;6.73;75.03
22031;BME280;11179;52.106;21.024;2023-12-20T10:36:30;99363.94;;;6.67;74.90
22031;BME280;11179;52.106;21.024;2023-12-20T10:38:57;99355.13;;;6.60;75.09
22031;BME280;11179;52.106;21.024;2023-12-20T10:41:28;99373.00;;;6.72;74.92
22031;BME280;11179;52.106;21.024;2023-12-20T10:43:59;99373.81;;;6.73;75.04
22031;BME280;11179;52.106;21.024;2023-12-20T10:46:26;99373.81;;;6.73;75.23
22031;BME280;11179;52.106;21.024;2023-12-20T10:48:53;99362.66;;;6.74;75.16
22031;BME280;11179;52.106;21.024;2023-12-20T10:51:20;99366.47;;;6.73;75.07
22031;BME280;11179;52.106;21.024;2023-12-20T10:53:48;99358.34;;;6.78;74.82
22031;BME280;11179;52.106;21.024;2023-12-20T10:56:17;99362.97;;;6.78;75.03
22031;BME280;11179;52.106;21.024;2023-12-20T10:58:49;99359.69;;;6.81;74.78
22031;BME280;11179;52.106;21.024;2023-12-20T11:01:16;99353.41;;;6.75;74.91
22031;BME280;11179;52.106;21.024;2023-12-20T11:03:49;99359.19;;;6.84;75.06
22031;BME280;11179;52.106;21.024;2023-12-20T11:08:58;99348.91;;;6.91;74.56
22031;BME280;11179;52.106;21.024;2023-12-20T11:11:39;99336.84;;;6.87;74.61
22031;BME280;11179;52.106;21.024;2023-12-20T11:14:15;99336.03;;;6.86;74.70
22031;BME280;11179;52.106;21.024;2023-12-20T11:16:42;99339.91;;;6.90;74.72
22031;BME280;11179;52.106;21.024;2023-12-20T11:19:07;99329.50;;;6.87;74.49
22031;BME280;11179;52.106;21.024;2023-12-20T11:21:35;99334.69;;;6.89;74.72
22031;BME280;11179;52.106;21.024;2023-12-20T11:24:01;99336.03;;;6.86;74.43
22031;BME280;11179;52.106;21.024;2023-12-20T11:26:28;99309.50;;;6.77;74.41
22031;BME280;11179;52.106;21.024;2023-12-20T11:29:58;99319.03;;;6.79;74.48
22031;BME280;11179;52.106;21.024;2023-12-20T11:34:51;99315.72;;;6.72;74.95
22031;BME280;11179;52.106;21.024;2023-12-20T11:37:19;99311.09;;;6.73;74.83
22031;BME280;11179;52.106;21.024;2023-12-20T11:39:45;99303.16;;;6.71;74.80
22031;BME280;11179;52.106;21.024;2023-12-20T11:42:10;99303.16;;;6.71;74.55
22031;BME280;11179;52.106;21.024;2023-12-20T11:44:36;99312.22;;;6.77;74.78
22031;BME280;11179;52.106;21.024;2023-12-20T11:47:02;99302.13;;;6.77;74.47
22031;BME280;11179;52.106;21.024;2023-12-20T11:49:31;99302.06;;;6.72;74.68
22031;BME280;11179;52.106;21.024;2023-12-20T11:51:56;99287.28;;;6.63;74.84
22031;BME280;11179;52.106;21.024;2023-12-20T11:54:25;99297.19;;;6.74;74.58
22031;BME280;11179;52.106;21.024;2023-12-20T11:56:50;99295.03;;;6.76;74.97
22031;BME280;11179;52.106;21.024;2023-12-20T11:59:15;99286.84;;;6.76;74.67
22031;BME280;11179;52.106;21.024;2023-12-20T12:01:48;99284.06;;;6.71;74.50
22031;BME280;11179;52.106;21.024;2023-12-20T12:04:16;99285.19;;;6.75;74.56
22031;BME280;11179;52.106;21.024;2023-12-20T12:06:43;99287.34;;;6.73;74.85
22031;BME280;11179;52.106;21.024;2023-12-20T12:09:08;99285.13;;;6.70;74.92
22031;BME280;11179;52.106;21.024;2023-12-20T12:11:36;99291.97;;;6.73;74.77
22031;BME280;11179;52.106;21.024;2023-12-20T12:14:02;99276.44;;;6.73;74.82
22031;BME280;11179;52.106;21.024;2023-12-20T12:16:30;99281.84;;;6.68;74.70
22031;BME280;11179;52.106;21.024;2023-12-20T12:18:59;99264.63;;;6.63;74.63
22031;BME280;11179;52.106;21.024;2023-12-20T12:21:27;99286.22;;;6.69;74.50
22031;BME280;11179;52.106;21.024;2023-12-20T12:23:53;99280.16;;;6.62;74.54
22031;BME280;11179;52.106;21.024;2023-12-20T12:26:18;99283.47;;;6.64;74.64
22031;BME280;11179;52.106;21.024;2023-12-20T12:28:44;99269.44;;;6.50;74.65
22031;BME280;11179;52.106;21.024;2023-12-20T12:31:13;99278.44;;;6.51;74.36
22031;BME280;11179;52.106;21.024;2023-12-20T12:33:42;99264.16;;;6.44;74.64
22031;BME280;11179;52.106;21.024;2023-12-20T12:36:09;99260.31;;;6.40;74.67
22031;BME280;11179;52.106;21.024;2023-12-20T12:38:37;99265.75;;;6.40;74.85
22031;BME280;11179;52.106;21.024;2023-12-20T12:41:03;99258.16;;;6.42;74.58
22031;BME280;11179;52.106;21.024;2023-12-20T12:43:29;99266.06;;;6.43;74.54
22031;BME280;11179;52.106;21.024;2023-12-20T12:45:54;99262.16;;;6.34;74.50
22031;BME280;11179;52.106;21.024;2023-12-20T12:48:20;99244.63;;;6.30;74.34
22031;BME280;11179;52.106;21.024;2023-12-20T12:50:46;99264.66;;;6.36;74.41
22031;BME280;11179;52.106;21.024;2023-12-20T12:53:14;99259.34;;;6.29;74.25
22031;BME280;11179;52.106;21.024;2023-12-20T12:55:39;99246.81;;;6.28;74.54
22031;BME280;11179;52.106;21.024;2023-12-20T12:58:05;99257.41;;;6.25;74.50
22031;BME280;11179;52.106;21.024;2023-12-20T13:00:30;99255.22;;;6.27;74.35
22031;BME280;11179;52.106;21.024;2023-12-20T13:02:55;99261.47;;;6.22;74.20
22031;BME280;11179;52.106;21.024;2023-12-20T13:05:20;99258.69;;;6.17;74.37
22031;BME280;11179;52.106;21.024;2023-12-20T13:07:46;99259.56;;;6.22;74.23
22031;BME280;11179;52.106;21.024;2023-12-20T13:10:11;99261.75;;;6.26;74.26